Time;durP1;ratioP1;P1;durP2;ratioP2;P2;SDS_P1;SDS_P2;PMS_P1;PMS_P2;Temp;Humidity;BMP_temperature;BMP_pressure;BME280_temperature;BME280_humidity;BME280_pressure;Samples;Min_cycle;Max_cycle;Signal;HPM_P1;HPM_P2
2023/08/16 00:02:16;;;;;;;7.10;6.50;;;;;;;21.83;58.61;99708.02;433787;1258;184765;-59
2023/08/16 00:12:22;;;;;;;9.30;6.60;;;;;;;21.75;59.23;99706.25;435604;1258;139127;-59
2023/08/16 00:22:27;;;;;;;7.10;6.40;;;;;;;21.69;59.72;99707.45;434146;1256;138891;-61
2023/08/16 00:32:33;;;;;;;8.20;7.40;;;;;;;21.60;60.07;99717.11;434303;1256;138733;-58
2023/08/16 00:42:39;;;;;;;7.20;6.50;;;;;;;21.49;60.57;99716.90;434177;1256;139070;-59
2023/08/16 00:52:45;;;;;;;7.60;6.30;;;;;;;21.38;61.07;99721.91;434021;1256;140423;-60
2023/08/16 01:02:51;;;;;;;7.60;6.40;;;;;;;21.30;61.40;99720.69;434068;1258;140337;-59
2023/08/16 01:13:06;;;;;;;6.50;6.00;;;;;;;21.21;61.83;99724.66;434448;1256;138788;-59
2023/08/16 01:23:22;;;;;;;7.70;6.60;;;;;;;21.13;62.22;99720.30;433584;1258;139865;-60
2023/08/16 01:33:27;;;;;;;6.30;5.80;;;;;;;21.07;62.55;99713.47;435451;1256;139855;-59
2023/08/16 01:43:34;;;;;;;6.70;5.90;;;;;;;21.02;62.84;99706.69;434262;1256;139757;-59
2023/08/16 01:53:41;;;;;;;10.90;6.80;;;;;;;20.96;63.12;99694.67;434968;1256;138787;-58
2023/08/16 02:03:46;;;;;;;7.40;5.90;;;;;;;20.89;63.40;99682.81;434368;1258;140166;-59
2023/08/16 02:13:52;;;;;;;8.20;6.30;;;;;;;20.82;63.82;99677.09;434582;1256;140167;-59
2023/08/16 02:23:58;;;;;;;5.90;5.40;;;;;;;20.76;64.02;99671.71;434252;1256;139104;-60
2023/08/16 02:34:04;;;;;;;6.30;5.50;;;;;;;20.71;64.38;99674.39;434149;1258;140319;-59
2023/08/16 02:44:10;;;;;;;6.60;6.00;;;;;;;20.60;64.63;99672.83;434269;1256;139016;-59
2023/08/16 02:54:16;;;;;;;6.60;5.90;;;;;;;20.47;65.21;99677.91;434409;1256;139735;-61
2023/08/16 03:04:21;;;;;;;10.40;5.70;;;;;;;20.35;65.65;99682.87;434009;1258;140239;-59
2023/08/16 03:14:28;;;;;;;10.90;7.40;;;;;;;20.29;65.97;99687.23;434165;1258;140512;-59
2023/08/16 03:24:33;;;;;;;7.00;6.40;;;;;;;20.25;66.34;99693.32;435241;1256;139204;-60
2023/08/16 03:34:39;;;;;;;7.30;6.60;;;;;;;20.23;66.67;99699.05;434326;1257;139485;-60
2023/08/16 03:44:45;;;;;;;7.50;6.90;;;;;;;20.23;66.96;99705.61;434015;1256;139661;-59
2023/08/16 03:54:52;;;;;;;8.20;7.40;;;;;;;20.31;67.13;99712.98;434296;1258;139188;-58
2023/08/16 04:05:07;;;;;;;8.70;7.20;;;;;;;20.45;67.19;99716.55;434928;1256;138654;-60
2023/08/16 04:15:13;;;;;;;9.40;7.30;;;;;;;20.58;67.19;99726.36;434615;1258;139835;-60
2023/08/16 04:25:21;;;;;;;9.90;7.30;;;;;;;20.81;67.21;99731.48;433985;1256;139178;-59
2023/08/16 04:35:26;;;;;;;;;;;;;;;21.17;66.93;99730.37;434424;1258;139488;-59
2023/08/16 04:45:32;;;;;;;8.60;7.40;;;;;;;21.66;66.47;99734.12;434101;1256;128243;-60
2023/08/16 04:55:37;;;;;;;8.10;7.10;;;;;;;22.22;65.66;99731.59;434104;1256;139570;-60
2023/08/16 05:05:44;;;;;;;7.90;6.30;;;;;;;22.77;64.57;99716.34;435127;1257;138656;-59
2023/08/16 05:15:49;;;;;;;6.30;5.80;;;;;;;25.35;65.12;99715.33;434381;1258;138954;-59
2023/08/16 05:25:55;;;;;;;7.00;5.40;;;;;;;31.37;57.69;99720.04;434254;1258;140963;-61
2023/08/16 05:36:01;;;;;;;5.50;4.90;;;;;;;36.57;47.71;99723.73;434040;1258;138257;-60
2023/08/16 05:46:07;;;;;;;5.10;4.20;;;;;;;40.66;39.93;99727.21;434063;1258;138848;-62
2023/08/16 05:56:13;;;;;;;7.50;6.30;;;;;;;43.93;34.02;99733.27;434122;1255;139398;-63
2023/08/16 06:06:19;;;;;;;5.30;4.60;;;;;;;46.47;29.94;99738.22;434267;1259;138402;-62
2023/08/16 06:16:24;;;;;;;7.60;5.00;;;;;;;48.85;26.48;99743.67;434208;1256;138206;-63
2023/08/16 06:26:30;;;;;;;6.60;4.60;;;;;;;50.53;24.03;99740.30;434051;1256;139833;-62
2023/08/16 06:36:36;;;;;;;4.80;3.90;;;;;;;51.59;22.02;99736.14;434716;1259;138420;-62
2023/08/16 06:46:42;;;;;;;4.80;4.30;;;;;;;52.86;20.83;99738.08;434662;1258;139304;-66
2023/08/16 06:56:49;;;;;;;5.40;4.90;;;;;;;54.81;19.50;99734.50;434908;1256;138601;-65
2023/08/16 07:06:55;;;;;;;6.20;5.60;;;;;;;56.18;17.83;99736.12;434532;1258;138092;-66
2023/08/16 07:17:02;;;;;;;6.60;6.00;;;;;;;57.08;17.10;99736.48;434521;1258;138996;-61
2023/08/16 07:27:08;;;;;;;8.40;7.90;;;;;;;57.96;16.23;99741.02;436612;1258;138373;-65
2023/08/16 07:37:14;;;;;;;10.90;10.40;;;;;;;60.65;15.01;99742.46;434501;1256;139086;-68
2023/08/16 07:47:20;;;;;;;15.30;14.20;;;;;;;61.96;13.74;99738.60;436983;1259;138446;-77
2023/08/16 07:57:26;;;;;;;18.10;17.20;;;;;;;62.65;13.23;99742.11;437954;1259;138841;-74
2023/08/16 08:07:31;;;;;;;13.50;12.70;;;;;;;62.97;12.58;99736.80;438171;1257;139174;-73
2023/08/16 08:17:37;;;;;;;8.70;6.50;;;;;;;61.82;12.68;99724.91;437764;1260;139057;-70
2023/08/16 08:27:43;;;;;;;7.00;3.80;;;;;;;58.80;13.30;99714.89;434735;1257;139120;-64
2023/08/16 08:37:49;;;;;;;3.10;2.90;;;;;;;52.83;14.89;99706.98;434345;1260;138671;-64
2023/08/16 08:47:57;;;;;;;5.40;3.60;;;;;;;48.41;17.26;99710.26;434542;1260;138053;-64
2023/08/16 08:58:04;;;;;;;4.20;3.50;;;;;;;45.13;19.24;99717.19;434810;1259;138944;-66
2023/08/16 09:08:13;;;;;;;5.00;3.60;;;;;;;43.27;21.05;99723.88;434277;1264;138960;-66
2023/08/16 09:18:21;;;;;;;5.40;3.70;;;;;;;42.39;22.39;99724.64;434073;1259;138535;-64
2023/08/16 09:28:33;;;;;;;3.70;3.50;;;;;;;41.49;22.83;99728.79;435801;1260;139040;-73
2023/08/16 09:38:44;;;;;;;6.40;3.90;;;;;;;40.75;23.49;99725.83;434251;1260;138038;-68
2023/08/16 09:48:51;;;;;;;5.00;4.20;;;;;;;40.00;24.33;99729.64;439017;1257;138004;-62
2023/08/16 09:59:00;;;;;;;4.10;3.80;;;;;;;39.12;25.10;99734.05;433606;1259;138453;-75
2023/08/16 10:09:10;;;;;;;4.30;4.00;;;;;;;38.66;26.03;99734.17;437814;1257;139429;-76
2023/08/16 10:19:22;;;;;;;4.90;4.50;;;;;;;38.43;26.51;99731.96;437710;1254;140148;-70
2023/08/16 10:29:33;;;;;;;6.00;5.30;;;;;;;37.91;26.89;99727.41;437596;1254;138187;-67
2023/08/16 10:39:39;;;;;;;6.70;4.30;;;;;;;37.27;27.69;99731.08;434174;1258;139195;-67
2023/08/16 10:49:45;;;;;;;5.00;4.60;;;;;;;36.74;28.16;99725.17;436564;1260;138130;-75
2023/08/16 11:00:01;;;;;;;4.50;4.20;;;;;;;36.30;28.81;99717.53;437751;1256;137991;-78
2023/08/16 11:10:08;;;;;;;4.70;4.20;;;;;;;35.95;29.23;99716.04;437689;1257;138633;-81
2023/08/16 11:20:18;;;;;;;5.80;5.20;;;;;;;35.66;29.52;99722.36;438312;1259;137999;-75
2023/08/16 11:30:24;;;;;;;7.80;7.00;;;;;;;35.48;29.98;99729.52;438261;1257;138288;-75
2023/08/16 11:40:30;;;;;;;4.80;4.40;;;;;;;35.39;30.01;99725.52;438311;1258;138564;-70
2023/08/16 11:50:36;;;;;;;4.70;4.30;;;;;;;35.33;30.15;99718.00;438049;1260;137940;-68
2023/08/16 12:00:44;;;;;;;5.80;5.20;;;;;;;35.14;30.33;99710.36;436320;1256;148362;-72
2023/08/16 12:10:56;;;;;;;6.60;4.70;;;;;;;35.16;30.60;99701.54;437645;1256;137972;-73
2023/08/16 12:21:02;;;;;;;5.80;5.30;;;;;;;35.16;30.70;99698.97;438162;1256;138628;-77
2023/08/16 12:31:07;;;;;;;;;;;;;;;34.98;30.70;99694.64;438160;1257;138189;-81
2023/08/16 12:41:13;;;;;;;5.20;4.50;;;;;;;34.71;30.92;99686.74;436510;1257;124584;-76
2023/08/16 12:51:17;;;;;;;;;;;;;;;34.77;31.28;99689.31;437166;1257;138104;-74
2023/08/16 13:01:23;;;;;;;5.30;4.30;;;;;;;34.99;31.28;99680.47;439051;1257;125086;-83
2023/08/16 13:11:29;;;;;;;9.00;5.00;;;;;;;35.30;31.20;99669.11;441817;1256;136961;-78
2023/08/16 13:21:41;;;;;;;5.60;5.00;;;;;;;35.70;30.75;99664.77;438067;1256;138411;-76
2023/08/16 13:31:59;;;;;;;5.30;4.90;;;;;;;36.15;30.43;99660.50;437457;1256;139671;-76
2023/08/16 13:42:09;;;;;;;7.40;4.80;;;;;;;36.24;30.06;99660.55;434374;1258;139247;-62
2023/08/16 13:52:22;;;;;;;6.90;4.60;;;;;;;36.13;30.16;99660.03;434190;1259;138392;-59
2023/08/16 14:02:28;;;;;;;4.90;4.30;;;;;;;36.21;30.20;99653.83;434414;1257;138427;-61
2023/08/16 14:12:35;;;;;;;10.70;5.40;;;;;;;36.16;30.24;99646.60;434417;1258;139814;-62
2023/08/16 14:22:41;;;;;;;5.70;5.20;;;;;;;36.09;30.35;99641.98;434368;1259;138905;-66
2023/08/16 14:32:47;;;;;;;5.40;5.00;;;;;;;35.79;30.40;99641.27;434688;1257;139077;-62
2023/08/16 14:42:53;;;;;;;5.90;5.40;;;;;;;35.79;30.97;99636.46;434543;1256;138097;-64
2023/08/16 14:52:57;;;;;;;;;;;;;;;35.88;30.71;99636.95;434267;1256;139221;-62
2023/08/16 15:03:04;;;;;;;4.60;4.10;;;;;;;35.53;30.78;99639.04;434656;1258;125537;-69
2023/08/16 15:13:11;;;;;;;5.60;3.90;;;;;;;35.01;31.17;99632.64;434287;1258;138145;-64
2023/08/16 15:23:18;;;;;;;4.60;4.10;;;;;;;34.52;31.53;99630.10;434376;1258;138309;-64
2023/08/16 15:33:24;;;;;;;6.30;4.60;;;;;;;34.10;32.07;99626.31;435192;1254;139043;-63
2023/08/16 15:43:30;;;;;;;5.50;4.10;;;;;;;33.69;32.59;99620.70;434571;1257;139139;-64
2023/08/16 15:53:36;;;;;;;5.20;4.70;;;;;;;33.28;32.91;99619.73;434567;1258;138164;-68
2023/08/16 16:03:42;;;;;;;4.40;4.10;;;;;;;32.98;33.14;99610.37;434453;1256;138660;-68
2023/08/16 16:13:48;;;;;;;4.30;3.90;;;;;;;32.71;33.04;99603.72;434296;1256;138569;-69
2023/08/16 16:23:53;;;;;;;4.20;3.40;;;;;;;32.51;33.15;99608.40;434658;1257;139669;-68
2023/08/16 16:33:59;;;;;;;3.60;3.30;;;;;;;32.33;33.13;99620.11;434965;1258;138163;-69
2023/08/16 16:44:07;;;;;;;5.10;3.30;;;;;;;32.11;32.76;99620.77;434737;1256;138484;-68
2023/08/16 16:54:12;;;;;;;5.40;3.20;;;;;;;31.88;32.64;99627.89;435003;1258;138477;-68
2023/08/16 17:04:18;;;;;;;5.30;3.40;;;;;;;31.61;32.77;99625.13;434646;1256;138925;-68
2023/08/16 17:14:24;;;;;;;4.40;3.60;;;;;;;31.29;32.90;99630.39;434822;1258;139238;-68
2023/08/16 17:24:30;;;;;;;5.40;3.70;;;;;;;30.92;33.51;99630.20;434900;1258;138164;-68
2023/08/16 17:34:36;;;;;;;3.90;3.50;;;;;;;30.55;34.30;99630.84;434570;1255;139992;-68
2023/08/16 17:44:42;;;;;;;7.50;4.40;;;;;;;30.12;35.86;99634.13;434021;1256;141393;-68
2023/08/16 17:54:48;;;;;;;5.50;4.50;;;;;;;29.70;37.32;99648.27;434258;1255;138024;-68
2023/08/16 18:04:54;;;;;;;8.40;5.20;;;;;;;29.34;38.65;99665.61;434271;1258;139824;-67
2023/08/16 18:15:00;;;;;;;8.00;5.20;;;;;;;29.00;39.82;99679.17;433951;1256;140212;-69
2023/08/16 18:25:07;;;;;;;9.30;5.00;;;;;;;28.73;40.76;99699.13;434431;1258;138197;-66
2023/08/16 18:35:13;;;;;;;9.60;5.20;;;;;;;28.49;41.57;99709.08;434775;1258;138833;-70
2023/08/16 18:45:19;;;;;;;26.70;16.00;;;;;;;28.25;42.16;99713.94;434728;1256;138289;-69
2023/08/16 18:55:27;;;;;;;14.30;11.90;;;;;;;28.00;43.04;99716.71;434673;1256;139624;-68
2023/08/16 19:05:41;;;;;;;9.00;6.60;;;;;;;27.75;43.85;99718.96;434631;1256;138361;-68
2023/08/16 19:15:47;;;;;;;17.90;10.80;;;;;;;27.50;44.78;99729.37;434878;1256;139021;-70
2023/08/16 19:25:56;;;;;;;8.40;7.10;;;;;;;27.26;45.85;99736.09;435787;1255;138612;-69
2023/08/16 19:36:05;;;;;;;7.00;6.40;;;;;;;27.00;46.93;99734.42;434517;1256;138188;-70
2023/08/16 19:46:11;;;;;;;19.20;6.90;;;;;;;26.74;48.19;99748.91;434498;1258;138092;-69
2023/08/16 19:56:17;;;;;;;8.40;6.20;;;;;;;26.51;49.49;99751.48;434203;1256;139370;-70
2023/08/16 20:06:23;;;;;;;8.90;8.00;;;;;;;26.33;50.23;99743.44;434486;1258;138607;-69
2023/08/16 20:16:29;;;;;;;15.90;7.80;;;;;;;26.17;51.08;99740.39;434652;1256;139212;-70
2023/08/16 20:26:35;;;;;;;16.50;15.10;;;;;;;26.05;52.56;99741.02;434628;1258;138640;-69
2023/08/16 20:36:41;;;;;;;19.00;14.80;;;;;;;25.95;53.81;99741.40;434768;1257;138720;-69
2023/08/16 20:46:49;;;;;;;10.70;9.60;;;;;;;25.86;55.08;99748.41;434441;1258;138410;-68
2023/08/16 20:56:56;;;;;;;10.60;9.60;;;;;;;25.77;55.84;99747.67;434562;1256;140240;-69
2023/08/16 21:07:02;;;;;;;10.20;9.30;;;;;;;25.64;56.67;99744.05;435063;1258;139039;-70
2023/08/16 21:17:08;;;;;;;12.30;9.90;;;;;;;25.49;57.42;99735.88;434628;1255;138568;-70
2023/08/16 21:27:15;;;;;;;12.20;8.90;;;;;;;25.32;58.17;99735.58;434568;1258;140789;-68
2023/08/16 21:37:21;;;;;;;10.60;9.50;;;;;;;25.17;58.87;99736.84;434602;1258;139429;-69
2023/08/16 21:47:26;;;;;;;13.70;9.20;;;;;;;25.06;59.46;99730.36;434531;1258;139079;-70
2023/08/16 21:57:35;;;;;;;10.90;9.20;;;;;;;24.98;59.90;99731.52;434663;1258;139464;-70
2023/08/16 22:07:41;;;;;;;12.80;10.00;;;;;;;24.88;60.29;99729.64;434360;1258;140183;-70
2023/08/16 22:17:47;;;;;;;10.40;9.30;;;;;;;24.76;60.71;99720.72;434838;1256;139967;-65
2023/08/16 22:27:53;;;;;;;12.30;10.20;;;;;;;24.69;61.13;99718.06;434633;1258;139219;-66
2023/08/16 22:37:59;;;;;;;10.70;9.10;;;;;;;24.63;61.38;99711.05;434204;1256;140798;-66
2023/08/16 22:48:06;;;;;;;10.30;8.50;;;;;;;24.60;61.54;99706.80;434050;1257;139064;-66
2023/08/16 22:58:12;;;;;;;10.90;9.80;;;;;;;24.57;61.75;99711.18;440229;1255;139979;-67
2023/08/16 23:08:17;;;;;;;9.40;8.70;;;;;;;24.54;61.75;99713.41;433899;1256;139093;-66
2023/08/16 23:18:23;;;;;;;9.40;8.50;;;;;;;24.52;61.67;99722.42;434104;1258;139313;-67
2023/08/16 23:28:29;;;;;;;9.40;8.50;;;;;;;24.51;61.72;99721.13;434228;1256;138866;-65
2023/08/16 23:38:35;;;;;;;9.20;8.30;;;;;;;24.48;61.81;99722.51;434180;1258;139823;-65
2023/08/16 23:48:41;;;;;;;10.00;9.00;;;;;;;24.44;61.92;99720.30;434550;1259;139713;-66
2023/08/16 23:58:47;;;;;;;8.60;7.90;;;;;;;24.40;61.85;99712.41;434114;1258;169039;-66
